createdAt,value
2022-09-10T00:01:29.157Z,19.64
2022-09-10T00:03:56.645Z,19.71
2022-09-10T00:06:27.686Z,19.82
2022-09-10T00:08:57.328Z,19.85
2022-09-10T00:11:26.323Z,19.86
2022-09-10T00:13:53.817Z,19.85
2022-09-10T00:16:21.997Z,19.75
2022-09-10T00:18:50.179Z,19.63
2022-09-10T00:21:20.875Z,19.58
2022-09-10T00:23:49.109Z,19.53
2022-09-10T00:26:21.648Z,19.53
2022-09-10T00:28:50.508Z,19.57
2022-09-10T00:31:18.798Z,19.52
2022-09-10T00:33:46.049Z,19.41
2022-09-10T00:36:20.008Z,19.37
2022-09-10T00:38:48.047Z,19.32
2022-09-10T00:41:16.496Z,19.26
2022-09-10T00:43:55.429Z,19.24
2022-09-10T00:46:31.306Z,19.23
2022-09-10T00:49:02.568Z,19.15
2022-09-10T00:51:33.042Z,19.15
2022-09-10T00:54:01.961Z,19.14
2022-09-10T00:56:30.202Z,19.15
2022-09-10T00:58:57.853Z,19.12
2022-09-10T01:01:25.440Z,19.11
2022-09-10T01:03:54.377Z,19.09
2022-09-10T01:06:21.602Z,19.06
2022-09-10T01:08:48.818Z,19.07
2022-09-10T01:11:21.936Z,19.11
2022-09-10T01:14:13.915Z,19.17
2022-09-10T01:16:44.382Z,19.16
2022-09-10T01:19:27.071Z,19.18
2022-09-10T01:22:06.396Z,19.21
2022-09-10T01:24:57.604Z,19.17
2022-09-10T01:27:33.892Z,19.16
2022-09-10T01:30:09.398Z,19.17
2022-09-10T01:33:03.860Z,19.15
2022-09-10T01:35:54.813Z,19.04
2022-09-10T01:38:27.039Z,18.99
2022-09-10T01:40:56.128Z,19.02
2022-09-10T01:43:25.322Z,19.09
2022-09-10T01:46:05.590Z,19.12
2022-09-10T01:48:42.856Z,19.14
2022-09-10T01:51:53.151Z,19.16
2022-09-10T01:54:29.508Z,19.16
2022-09-10T01:57:19.378Z,19.22
2022-09-10T01:59:55.764Z,19.23
2022-09-10T02:02:43.558Z,19.25
2022-09-10T02:05:12.159Z,19.30
2022-09-10T02:07:39.752Z,19.32
2022-09-10T02:10:09.361Z,19.35
2022-09-10T02:12:43.636Z,19.37
2022-09-10T02:15:30.101Z,19.37
2022-09-10T02:18:12.599Z,19.37
2022-09-10T02:20:40.566Z,19.39
2022-09-10T02:23:09.311Z,19.36
2022-09-10T02:25:39.474Z,19.41
2022-09-10T02:28:06.772Z,19.41
2022-09-10T02:30:33.957Z,19.41
2022-09-10T02:33:01.291Z,19.37
2022-09-10T02:35:28.566Z,19.32
2022-09-10T02:37:56.795Z,19.30
2022-09-10T02:40:24.936Z,19.32
2022-09-10T02:42:52.163Z,19.30
2022-09-10T02:45:24.417Z,19.26
2022-09-10T02:47:52.544Z,19.21
2022-09-10T02:50:19.887Z,19.18
2022-09-10T02:52:47.181Z,19.19
2022-09-10T02:55:15.501Z,19.20
2022-09-10T02:57:43.975Z,19.24
2022-09-10T03:00:11.898Z,19.26
2022-09-10T03:02:40.305Z,19.29
2022-09-10T03:05:08.312Z,19.32
2022-09-10T03:07:35.673Z,19.37
2022-09-10T03:10:03.087Z,19.36
2022-09-10T03:12:30.346Z,19.39
2022-09-10T03:14:58.999Z,19.42
2022-09-10T03:17:26.949Z,19.41
2022-09-10T03:19:54.803Z,19.37
2022-09-10T03:22:22.328Z,19.34
2022-09-10T03:24:49.678Z,19.32
2022-09-10T03:27:18.163Z,19.33
2022-09-10T03:29:45.626Z,19.38
2022-09-10T03:32:14.381Z,19.46
2022-09-10T03:34:41.899Z,19.48
2022-09-10T03:37:09.107Z,19.38
2022-09-10T03:39:36.637Z,19.35
2022-09-10T03:42:05.261Z,19.25
2022-09-10T03:44:33.651Z,19.02
2022-09-10T03:47:01.731Z,19.03
2022-09-10T03:49:29.239Z,19.07
2022-09-10T03:51:56.830Z,19.12
2022-09-10T03:54:24.863Z,19.10
2022-09-10T03:56:52.181Z,19.06
2022-09-10T03:59:19.470Z,19.08
2022-09-10T04:01:47.276Z,19.02
2022-09-10T04:04:15.049Z,19.02
2022-09-10T04:06:42.633Z,19.03
2022-09-10T04:09:10.866Z,18.99
2022-09-10T04:11:38.276Z,18.89
2022-09-10T04:14:05.898Z,18.88
2022-09-10T04:16:36.530Z,18.86
2022-09-10T04:19:05.885Z,18.86
2022-09-10T04:21:33.154Z,18.85
2022-09-10T04:24:00.660Z,18.82
2022-09-10T04:26:28.040Z,18.79
2022-09-10T04:28:56.202Z,18.79
2022-09-10T04:31:23.586Z,18.77
2022-09-10T04:33:53.666Z,18.71
2022-09-10T04:36:24.142Z,18.75
2022-09-10T04:38:51.464Z,18.91
2022-09-10T04:41:19.478Z,19.01
2022-09-10T04:43:47.678Z,19.03
2022-09-10T04:46:15.723Z,19.11
2022-09-10T04:48:43.596Z,19.13
2022-09-10T04:51:16.974Z,19.19
2022-09-10T04:53:47.640Z,19.27
2022-09-10T04:56:15.171Z,19.18
2022-09-10T04:58:44.157Z,19.30
2022-09-10T05:01:12.673Z,19.38
2022-09-10T05:03:40.313Z,19.28
2022-09-10T05:06:09.005Z,19.19
2022-09-10T05:08:36.874Z,19.07
2022-09-10T05:11:05.590Z,19.29
2022-09-10T05:13:34.021Z,19.47
2022-09-10T05:16:02.448Z,19.46
2022-09-10T05:18:32.214Z,19.32
2022-09-10T05:20:59.834Z,19.20
2022-09-10T05:23:28.513Z,19.24
2022-09-10T05:25:57.883Z,19.12
2022-09-10T05:28:25.221Z,19.12
2022-09-10T05:30:53.213Z,18.89
2022-09-10T05:33:23.710Z,18.96
2022-09-10T05:35:51.833Z,18.95
2022-09-10T05:38:20.054Z,18.93
2022-09-10T05:40:48.185Z,18.96
2022-09-10T05:43:15.537Z,18.92
2022-09-10T05:45:44.973Z,18.96
2022-09-10T05:48:13.261Z,19.08
2022-09-10T05:50:41.376Z,19.28
2022-09-10T05:53:09.865Z,19.31
2022-09-10T05:55:38.089Z,19.34
2022-09-10T05:58:06.925Z,19.21
2022-09-10T06:00:36.889Z,19.23
2022-09-10T06:03:05.414Z,19.26
2022-09-10T06:05:41.558Z,19.13
2022-09-10T06:08:09.263Z,19.11
2022-09-10T06:10:42.061Z,19.07
2022-09-10T06:13:11.179Z,18.96
2022-09-10T06:15:40.814Z,18.95
2022-09-10T06:18:09.292Z,18.96
2022-09-10T06:20:37.633Z,19.11
2022-09-10T06:23:07.123Z,18.96
2022-09-10T06:25:34.369Z,19.02
2022-09-10T06:28:02.190Z,19.12
2022-09-10T06:30:29.790Z,19.20
2022-09-10T06:32:57.504Z,19.28
2022-09-10T06:35:25.446Z,19.41
2022-09-10T06:37:54.251Z,19.43
2022-09-10T06:40:22.321Z,19.23
2022-09-10T06:42:49.613Z,19.15
2022-09-10T06:45:20.034Z,19.08
2022-09-10T06:50:59.209Z,19.32
2022-09-10T06:53:33.631Z,19.49
2022-09-10T06:56:03.663Z,19.72
2022-09-10T06:58:35.259Z,19.97
2022-09-10T07:01:14.860Z,20.23
2022-09-10T07:03:46.595Z,20.45
2022-09-10T07:06:17.886Z,20.29
2022-09-10T07:08:48.490Z,20.19
2022-09-10T07:11:16.413Z,20.36
2022-09-10T07:13:50.730Z,20.29
2022-09-10T07:16:19.909Z,20.27
2022-09-10T07:18:55.921Z,20.24
2022-09-10T07:21:28.851Z,20.31
2022-09-10T07:24:03.527Z,21.48
2022-09-10T07:26:30.889Z,22.17
2022-09-10T07:28:59.619Z,23.05
2022-09-10T07:31:28.090Z,23.43
2022-09-10T07:34:00.994Z,22.49
2022-09-10T07:36:29.066Z,23.02
2022-09-10T07:39:01.480Z,23.52
2022-09-10T07:41:33.999Z,23.69
2022-09-10T07:44:03.564Z,23.89
2022-09-10T07:46:37.957Z,22.98
2022-09-10T07:49:09.239Z,23.50
2022-09-10T07:51:38.306Z,23.41
2022-09-10T07:54:06.902Z,24.28
2022-09-10T07:56:38.755Z,25.03
2022-09-10T07:59:08.966Z,25.29
2022-09-10T08:02:01.576Z,26.58
2022-09-10T08:04:36.683Z,26.41
2022-09-10T08:07:06.783Z,26.09
2022-09-10T08:09:36.674Z,26.52
2022-09-10T08:12:07.661Z,26.34
2022-09-10T08:14:37.370Z,28.14
2022-09-10T08:17:05.675Z,27.37
2022-09-10T08:19:37.358Z,28.22
2022-09-10T08:22:04.870Z,28.13
2022-09-10T08:24:39.603Z,28.84
2022-09-10T08:27:06.851Z,29.21
2022-09-10T08:29:34.993Z,28.50
2022-09-10T08:32:02.482Z,29.04
2022-09-10T08:34:34.338Z,28.45
2022-09-10T08:37:08.366Z,29.52
2022-09-10T08:39:37.401Z,29.34
2022-09-10T08:42:15.255Z,29.32
2022-09-10T08:44:52.310Z,28.31
2022-09-10T08:47:33.326Z,28.51
2022-09-10T08:50:22.814Z,29.15
2022-09-10T08:53:04.957Z,29.38
2022-09-10T08:55:35.648Z,29.47
2022-09-10T08:58:13.042Z,29.55
2022-09-10T09:00:44.414Z,27.85
2022-09-10T09:03:25.168Z,27.39
2022-09-10T09:06:02.072Z,27.09
2022-09-10T09:08:41.070Z,26.53
2022-09-10T09:11:31.656Z,26.63
2022-09-10T09:14:20.299Z,27.78
2022-09-10T09:17:13.011Z,27.66
2022-09-10T09:20:08.307Z,28.96
2022-09-10T09:22:51.538Z,29.31
2022-09-10T09:25:23.039Z,30.13
2022-09-10T09:27:57.716Z,30.00
2022-09-10T09:30:49.503Z,29.79
2022-09-10T09:33:23.124Z,30.25
2022-09-10T09:36:03.292Z,30.61
2022-09-10T09:38:45.108Z,30.65
2022-09-10T09:41:35.005Z,30.41
2022-09-10T09:44:39.427Z,28.38
2022-09-10T09:47:09.303Z,26.77
2022-09-10T09:49:39.856Z,25.92
2022-09-10T09:52:22.704Z,27.58
2022-09-10T09:57:42.878Z,29.45
2022-09-10T10:00:37.822Z,28.92
2022-09-10T10:03:12.967Z,26.57
2022-09-10T10:05:40.342Z,27.56
2022-09-10T10:08:30.881Z,29.40
2022-09-10T10:11:00.451Z,30.00
2022-09-10T10:13:40.235Z,31.19
2022-09-10T10:16:37.832Z,31.64
2022-09-10T10:19:27.270Z,29.38
2022-09-10T10:21:54.919Z,27.88
2022-09-10T10:24:42.465Z,26.78
2022-09-10T10:27:38.322Z,26.25
2022-09-10T10:30:22.127Z,25.71
2022-09-10T10:33:00.132Z,25.69
2022-09-10T10:35:32.920Z,27.29
2022-09-10T10:38:06.395Z,26.65
2022-09-10T10:40:36.886Z,27.26
2022-09-10T10:43:28.467Z,27.64
2022-09-10T10:46:12.685Z,29.93
2022-09-10T10:49:11.446Z,29.98
2022-09-10T10:51:50.675Z,28.13
2022-09-10T10:54:55.251Z,27.04
2022-09-10T10:57:56.325Z,26.74
2022-09-10T11:00:24.715Z,26.56
2022-09-10T11:03:16.231Z,26.01
2022-09-10T11:05:48.323Z,25.37
2022-09-10T11:08:27.127Z,25.00
2022-09-10T11:11:02.559Z,24.90
2022-09-10T11:13:53.916Z,27.27
2022-09-10T11:16:40.424Z,28.11
2022-09-10T11:19:21.869Z,27.31
2022-09-10T11:21:58.730Z,26.87
2022-09-10T11:24:34.732Z,27.10
2022-09-10T11:27:23.238Z,26.84
2022-09-10T11:30:04.963Z,27.19
2022-09-10T11:32:53.657Z,26.51
2022-09-10T11:35:23.678Z,26.10
2022-09-10T11:38:17.076Z,26.47
2022-09-10T11:40:58.008Z,26.18
2022-09-10T11:43:33.408Z,26.20
2022-09-10T11:46:05.856Z,26.64
2022-09-10T11:48:38.341Z,27.90
2022-09-10T11:51:15.907Z,29.47
2022-09-10T11:53:44.180Z,29.45
2022-09-10T11:56:33.219Z,29.34
2022-09-10T11:59:15.734Z,28.45
2022-09-10T12:01:55.095Z,27.97
2022-09-10T12:04:50.057Z,27.22
2022-09-10T12:07:21.109Z,26.61
2022-09-10T12:10:09.960Z,26.17
2022-09-10T12:12:49.798Z,26.51
2022-09-10T12:15:20.048Z,27.45
2022-09-10T12:18:13.559Z,28.31
2022-09-10T12:20:51.338Z,28.77
2022-09-10T12:23:30.104Z,27.25
2022-09-10T12:26:19.677Z,26.64
2022-09-10T12:28:49.746Z,26.54
2022-09-10T12:31:18.743Z,26.61
2022-09-10T12:33:46.017Z,26.43
2022-09-10T12:36:46.300Z,27.04
2022-09-10T12:39:28.730Z,27.22
2022-09-10T12:41:59.123Z,27.05
2022-09-10T12:44:36.028Z,27.27
2022-09-10T12:47:15.117Z,26.81
2022-09-10T12:49:57.330Z,26.48
2022-09-10T12:52:48.873Z,26.40
2022-09-10T12:55:29.082Z,26.75
2022-09-10T12:58:14.885Z,26.82
2022-09-10T13:00:54.441Z,26.83
2022-09-10T13:03:24.365Z,26.60
2022-09-10T13:05:54.970Z,25.89
2022-09-10T13:08:33.219Z,25.57
2022-09-10T13:11:01.311Z,25.12
2022-09-10T13:13:40.519Z,24.91
2022-09-10T13:16:15.723Z,25.05
2022-09-10T13:18:43.242Z,25.18
2022-09-10T13:21:22.662Z,25.51
2022-09-10T13:23:56.710Z,25.40
2022-09-10T13:26:34.109Z,25.04
2022-09-10T13:29:04.902Z,24.98
2022-09-10T13:31:39.465Z,25.00
2022-09-10T13:34:15.609Z,24.92
2022-09-10T13:37:10.007Z,25.00
2022-09-10T13:40:29.007Z,24.76
2022-09-10T13:42:56.192Z,24.75
2022-09-10T13:45:38.109Z,24.63
2022-09-10T13:48:25.011Z,24.63
2022-09-10T13:51:16.943Z,24.35
2022-09-10T13:53:46.929Z,24.16
2022-09-10T13:56:26.686Z,24.20
2022-09-10T13:59:00.883Z,24.14
2022-09-10T14:01:54.354Z,23.82
2022-09-10T14:04:26.993Z,23.93
2022-09-10T14:07:03.931Z,24.12
2022-09-10T14:09:32.668Z,24.09
2022-09-10T14:12:03.896Z,24.37
2022-09-10T14:14:36.919Z,24.61
2022-09-10T14:17:11.464Z,24.70
2022-09-10T14:19:51.586Z,24.72
2022-09-10T14:22:25.178Z,24.64
2022-09-10T14:24:56.504Z,24.34
2022-09-10T14:27:35.333Z,24.26
2022-09-10T14:30:24.878Z,24.29
2022-09-10T14:32:52.946Z,24.52
2022-09-10T14:35:40.023Z,24.61
2022-09-10T14:38:34.254Z,24.60
2022-09-10T14:41:08.541Z,24.55
2022-09-10T14:43:38.971Z,24.55
2022-09-10T14:46:08.192Z,24.32
2022-09-10T14:48:39.947Z,24.05
2022-09-10T14:51:18.564Z,24.19
2022-09-10T14:53:50.919Z,24.25
2022-09-10T14:56:44.116Z,24.35
2022-09-10T14:59:19.514Z,24.03
2022-09-10T15:01:48.434Z,23.85
2022-09-10T15:04:18.849Z,23.85
2022-09-10T15:06:46.166Z,23.73
2022-09-10T15:09:14.842Z,23.71
2022-09-10T15:12:09.011Z,23.80
2022-09-10T15:14:36.931Z,23.85
2022-09-10T15:17:04.876Z,23.80
2022-09-10T15:19:32.402Z,23.80
2022-09-10T15:21:59.711Z,23.87
2022-09-10T15:24:28.320Z,23.72
2022-09-10T15:26:56.502Z,23.74
2022-09-10T15:29:23.958Z,23.69
2022-09-10T15:31:51.415Z,23.44
2022-09-10T15:34:19.352Z,23.44
2022-09-10T15:36:46.824Z,23.47
2022-09-10T15:39:14.172Z,23.50
2022-09-10T15:41:43.626Z,23.46
2022-09-10T15:44:11.667Z,23.36
2022-09-10T15:46:45.361Z,23.30
2022-09-10T15:49:12.815Z,23.33
2022-09-10T15:51:41.423Z,23.45
2022-09-10T15:54:10.955Z,23.52
2022-09-10T15:56:39.492Z,23.49
2022-09-10T15:59:08.583Z,23.43
2022-09-10T16:01:38.318Z,23.49
2022-09-10T16:04:05.901Z,23.29
2022-09-10T16:06:36.007Z,23.17
2022-09-10T16:09:06.757Z,23.20
2022-09-10T16:11:36.383Z,23.28
2022-09-10T16:14:05.354Z,23.26
2022-09-10T16:16:33.345Z,23.17
2022-09-10T16:19:00.884Z,23.06
2022-09-10T16:21:32.143Z,23.01
2022-09-10T16:24:01.252Z,23.00
2022-09-10T16:26:37.852Z,22.95
2022-09-10T16:29:13.722Z,22.86
2022-09-10T16:31:41.397Z,22.80
2022-09-10T16:34:12.077Z,22.64
2022-09-10T16:36:40.061Z,22.42
2022-09-10T16:39:13.352Z,22.27
2022-09-10T16:41:42.451Z,22.12
2022-09-10T16:44:11.165Z,21.96
2022-09-10T16:46:39.222Z,22.03
2022-09-10T16:49:13.919Z,22.05
2022-09-10T16:51:42.941Z,22.00
2022-09-10T16:54:11.039Z,21.90
2022-09-10T16:56:40.969Z,21.86
2022-09-10T16:59:13.918Z,21.84
2022-09-10T17:01:43.138Z,21.82
2022-09-10T17:04:18.539Z,21.75
2022-09-10T17:06:46.727Z,21.73
2022-09-10T17:09:14.954Z,21.68
2022-09-10T17:11:42.400Z,21.69
2022-09-10T17:14:10.382Z,21.69
2022-09-10T17:16:39.649Z,21.66
2022-09-10T17:19:10.983Z,21.64
2022-09-10T17:21:40.771Z,21.58
2022-09-10T17:24:10.703Z,21.54
2022-09-10T17:26:39.539Z,21.58
2022-09-10T17:29:10.234Z,21.58
2022-09-10T17:31:37.554Z,21.59
2022-09-10T17:34:05.079Z,21.56
2022-09-10T17:36:34.279Z,21.43
2022-09-10T17:39:01.603Z,21.34
2022-09-10T17:41:29.873Z,21.31
2022-09-10T17:43:59.521Z,21.19
2022-09-10T17:46:27.271Z,21.14
2022-09-10T17:48:54.663Z,21.03
2022-09-10T17:51:27.411Z,20.96
2022-09-10T17:53:55.740Z,20.98
2022-09-10T17:56:24.667Z,20.98
2022-09-10T17:59:01.395Z,20.94
2022-09-10T18:01:31.571Z,20.81
2022-09-10T18:03:59.068Z,20.76
2022-09-10T18:06:29.239Z,20.66
2022-09-10T18:09:00.758Z,20.57
2022-09-10T18:11:30.872Z,20.46
2022-09-10T18:13:59.237Z,20.36
2022-09-10T18:16:29.098Z,20.27
2022-09-10T18:19:12.908Z,20.23
2022-09-10T18:21:41.634Z,20.17
2022-09-10T18:24:14.924Z,20.07
2022-09-10T18:26:44.377Z,19.98
2022-09-10T18:29:15.539Z,20.00
2022-09-10T18:31:45.262Z,20.02
2022-09-10T18:34:18.522Z,20.02
2022-09-10T18:36:54.502Z,20.01
2022-09-10T18:39:23.095Z,19.90
2022-09-10T18:41:51.333Z,19.89
2022-09-10T18:44:21.731Z,20.00
2022-09-10T18:46:50.521Z,19.88
2022-09-10T18:49:21.475Z,19.91
2022-09-10T18:51:49.817Z,19.92
2022-09-10T18:54:18.158Z,19.86
2022-09-10T18:56:46.990Z,19.86
2022-09-10T18:59:22.137Z,19.86
2022-09-10T19:01:53.031Z,19.87
2022-09-10T19:04:23.799Z,19.87
2022-09-10T19:06:51.756Z,19.88
2022-09-10T19:09:27.570Z,19.97
2022-09-10T19:11:56.545Z,20.00
2022-09-10T19:14:29.886Z,20.03
2022-09-10T19:16:58.824Z,20.02
2022-09-10T19:19:32.272Z,19.96
2022-09-10T19:22:07.102Z,19.92
2022-09-10T19:24:53.882Z,19.94
2022-09-10T19:27:22.412Z,20.03
2022-09-10T19:29:50.237Z,19.88
2022-09-10T19:32:19.762Z,19.88
2022-09-10T19:34:51.103Z,19.89
2022-09-10T19:37:19.544Z,19.87
2022-09-10T19:39:47.609Z,19.88
2022-09-10T19:42:15.162Z,19.90
2022-09-10T19:44:43.550Z,19.92
2022-09-10T19:47:10.776Z,19.92
2022-09-10T19:49:39.105Z,19.96
2022-09-10T19:52:06.327Z,19.85
2022-09-10T19:54:33.553Z,19.76
2022-09-10T19:57:00.818Z,19.79
2022-09-10T19:59:28.201Z,19.83
2022-09-10T20:01:55.522Z,19.77
2022-09-10T20:04:22.971Z,19.78
2022-09-10T20:06:50.642Z,19.63
2022-09-10T20:09:17.990Z,19.60
2022-09-10T20:11:45.369Z,19.61
2022-09-10T20:14:14.332Z,19.59
2022-09-10T20:16:45.979Z,19.50
2022-09-10T20:19:18.151Z,19.44
2022-09-10T20:21:47.477Z,19.48
2022-09-10T20:24:15.572Z,19.52
2022-09-10T20:26:43.767Z,19.54
2022-09-10T20:29:14.176Z,19.48
2022-09-10T20:31:43.327Z,19.37
2022-09-10T20:34:19.452Z,19.25
2022-09-10T20:36:53.748Z,19.38
2022-09-10T20:39:25.255Z,19.38
2022-09-10T20:41:53.406Z,19.40
2022-09-10T20:44:21.066Z,19.42
2022-09-10T20:46:48.317Z,19.40
2022-09-10T20:49:16.443Z,19.43
2022-09-10T20:51:44.625Z,19.42
2022-09-10T20:54:17.640Z,19.41
2022-09-10T20:56:45.514Z,19.34
2022-09-10T20:59:15.495Z,19.34
2022-09-10T21:01:46.040Z,19.24
2022-09-10T21:04:14.218Z,19.16
2022-09-10T21:06:41.627Z,19.11
2022-09-10T21:09:09.045Z,19.14
2022-09-10T21:11:36.696Z,19.08
2022-09-10T21:14:05.823Z,19.13
2022-09-10T21:16:38.709Z,19.05
2022-09-10T21:19:09.398Z,19.10
2022-09-10T21:21:39.317Z,19.22
2022-09-10T21:24:10.143Z,19.18
2022-09-10T21:26:39.574Z,19.19
2022-09-10T21:29:10.652Z,19.23
2022-09-10T21:31:38.742Z,19.10
2022-09-10T21:34:06.493Z,19.10
2022-09-10T21:36:35.900Z,19.15
2022-09-10T21:39:09.791Z,19.06
2022-09-10T21:41:40.278Z,19.12
2022-09-10T21:44:14.246Z,19.09
2022-09-10T21:46:43.225Z,19.04
2022-09-10T21:49:10.915Z,19.04
2022-09-10T21:51:38.202Z,19.00
2022-09-10T21:54:05.925Z,19.00
2022-09-10T21:56:33.530Z,19.00
2022-09-10T21:59:01.253Z,18.99
2022-09-10T22:01:30.594Z,19.09
2022-09-10T22:04:00.653Z,19.12
2022-09-10T22:06:37.322Z,19.03
2022-09-10T22:09:08.436Z,18.99
2022-09-10T22:11:42.076Z,19.07
2022-09-10T22:14:14.948Z,18.93
2022-09-10T22:16:42.897Z,18.92
2022-09-10T22:19:14.101Z,18.87
2022-09-10T22:21:41.413Z,18.74
2022-09-10T22:24:10.808Z,18.72
2022-09-10T22:26:43.311Z,18.66
2022-09-10T22:29:12.219Z,18.64
2022-09-10T22:31:39.721Z,18.62
2022-09-10T22:34:13.567Z,18.58
2022-09-10T22:36:42.895Z,18.61
2022-09-10T22:39:14.586Z,18.55
2022-09-10T22:41:42.447Z,18.57
2022-09-10T22:44:09.983Z,18.54
2022-09-10T22:46:38.203Z,18.52
2022-09-10T22:49:06.326Z,18.45
2022-09-10T22:51:36.330Z,18.57
2022-09-10T22:54:05.280Z,18.64
2022-09-10T22:56:35.321Z,18.67
2022-09-10T22:59:03.677Z,18.70
2022-09-10T23:01:37.018Z,18.68
2022-09-10T23:04:06.510Z,18.69
2022-09-10T23:06:36.916Z,18.76
2022-09-10T23:09:15.514Z,18.66
2022-09-10T23:11:44.431Z,18.48
2022-09-10T23:14:22.132Z,18.46
2022-09-10T23:16:50.892Z,18.37
2022-09-10T23:19:21.091Z,18.28
2022-09-10T23:21:54.508Z,18.36
2022-09-10T23:24:26.347Z,18.34
2022-09-10T23:26:54.008Z,18.29
2022-09-10T23:29:23.362Z,18.21
2022-09-10T23:31:54.015Z,18.14
2022-09-10T23:34:22.152Z,18.12
2022-09-10T23:36:49.996Z,18.05
2022-09-10T23:39:22.612Z,18.10
2022-09-10T23:41:52.396Z,18.14
2022-09-10T23:44:20.305Z,18.17
2022-09-10T23:46:48.126Z,18.14
2022-09-10T23:49:15.974Z,18.15
2022-09-10T23:51:43.390Z,18.14
2022-09-10T23:54:12.622Z,18.14
2022-09-10T23:56:40.118Z,18.12
2022-09-10T23:59:07.762Z,18.05
